Time;durP1;ratioP1;P1;durP2;ratioP2;P2;SDS_P1;SDS_P2;PMS_P1;PMS_P2;Temp;Humidity;BMP_temperature;BMP_pressure;BME280_temperature;BME280_humidity;BME280_pressure;Samples;Min_cycle;Max_cycle;Signal;HPM_P1;HPM_P2
2022/06/30 00:00:09;;;;;;;;;;;;;;;;;;1039844;28;2732;-43
2022/06/30 00:00:51;;;;;;;;;;;;;;;;;;1040754;28;2391;-43
2022/06/30 00:01:21;;;;;;;;;;;;;;;;;;1040903;28;2940;-45
2022/06/30 00:01:51;;;;;;;;;;;;;;;;;;1041302;28;1435;-43
2022/06/30 00:02:22;;;;;;;;;;;;;;;;;;1037391;28;2236;-46
2022/06/30 00:02:52;;;;;;;;;;;;;;;;;;1037725;28;2665;-44
2022/06/30 00:03:22;;;;;;;;;;;;;;;;;;1038759;28;3126;-44
2022/06/30 00:03:53;;;;;;;;;;;;;;;;;;1039064;28;2240;-45
2022/06/30 00:04:23;;;;;;;;;;;;;;;;;;1040391;28;4552;-44
2022/06/30 00:04:53;;;;;;;;;;;;;;;;;;1039060;28;3801;-47
2022/06/30 00:05:24;;;;;;;;;;;;;;;;;;1039922;28;2945;-43
2022/06/30 00:05:54;;;;;;;;;;;;;;;;;;1040932;28;2186;-45
2022/06/30 00:06:24;;;;;;;;;;;;;;;;;;1048014;28;2740;-45
2022/06/30 00:06:55;;;;;;;;;;;;;;;;;;1047222;28;1921;-44
2022/06/30 00:07:25;;;;;;;;;;;;;;;;;;1046224;28;2654;-46
2022/06/30 00:07:55;;;;;;;;;;;;;;;;;;1046268;28;1536;-45
2022/06/30 00:08:25;;;;;;;;;;;;;;;;;;1040819;28;2779;-44
2022/06/30 00:08:56;;;;;;;;;;;;;;;;;;1039601;28;2788;-44
2022/06/30 00:09:26;;;;;;;;;;;;;;;;;;1039918;28;2859;-44
2022/06/30 00:09:56;;;;;;;;;;;;;;;;;;1039872;28;2095;-43
2022/06/30 00:10:27;;;;;;;;;;;;;;;;;;1039159;28;2469;-45
2022/06/30 00:11:06;;;;;;;;;;;;;;;;;;1037734;28;3802;-45
2022/06/30 00:11:37;;;;;;;;;;;;;;;;;;1041163;28;2781;-44
2022/06/30 00:12:07;;;;;;;;;;;;;;;;;;1041106;28;2596;-46
2022/06/30 00:12:38;;;;;;;;;;;;;;;;;;1038873;28;3801;-45
2022/06/30 00:13:08;;;;;;;;;;;;;;;;;;1039806;28;2815;-44
2022/06/30 00:13:40;;;;;;;;;;;;;;;;;;1040078;28;3024;-45
2022/06/30 00:14:10;;;;;;;;;;;;;;;;;;1038688;28;2839;-45
2022/06/30 00:14:40;;;;;;;;;;;;;;;;;;1039952;28;2295;-44
2022/06/30 00:15:11;;;;;;;;;;;;;;;;;;1038857;28;2899;-44
2022/06/30 00:15:41;;;;;;;;;;;;;;;;;;1040608;28;2444;-45
2022/06/30 00:16:12;;;;;;;;;;;;;;;;;;1038832;28;2389;-44
2022/06/30 00:16:42;;;;;;;;;;;;;;;;;;1038612;28;3816;-44
2022/06/30 00:17:12;;;;;;;;;;;;;;;;;;1042563;28;3983;-47
2022/06/30 00:17:43;;;;;;;;;;;;;;;;;;1044363;28;2487;-43
2022/06/30 00:18:13;;;;;;;;;;;;;;;;;;1041997;28;1908;-44
2022/06/30 00:18:44;;;;;;;;;;;;;;;;;;1045806;28;2777;-44
2022/06/30 00:19:14;;;;;;;;;;;;;;;;;;1039251;28;1972;-45
2022/06/30 00:19:45;;;;;;;;;;;;;;;;;;1038080;28;3686;-44
2022/06/30 00:20:15;;;;;;;;;;;;;;;;;;1038507;28;3705;-44
2022/06/30 00:20:46;;;;;;;;;;;;;;;;;;1040317;28;3709;-44
2022/06/30 00:21:16;;;;;;;;;;;;;;;;;;1043044;28;1704;-45
2022/06/30 00:22:00;;;;;;;;;;;;;;;;;;1042706;28;1937;-43
2022/06/30 00:22:37;;;;;;;;;;;;;;;;;;1037392;28;3841;-44
2022/06/30 00:23:07;;;;;;;;;;;;;;;;;;1036829;28;2852;-44
2022/06/30 00:23:38;;;;;;;;;;;;;;;;;;1036194;28;1760;-44
2022/06/30 00:24:08;;;;;;;;;;;;;;;;;;1036431;28;2749;-45
2022/06/30 00:24:38;;;;;;;;;;;;;;;;;;1042915;28;2909;-44
2022/06/30 00:25:08;;;;;;;;;;;;;;;;;;1042724;28;2787;-46
2022/06/30 00:25:39;;;;;;;;;;;;;;;;;;1043883;28;2569;-49
2022/06/30 00:26:09;;;;;;;;;;;;;;;;;;1037718;28;2569;-44
2022/06/30 00:26:39;;;;;;;;;;;;;;;;;;1039668;28;2542;-45
2022/06/30 00:27:11;;;;;;;;;;;;;;;;;;1038542;28;3693;-43
2022/06/30 00:27:41;;;;;;;;;;;;;;;;;;1040046;28;3556;-44
2022/06/30 00:28:12;;;;;;;;;;;;;;;;;;1037453;28;3629;-45
2022/06/30 00:28:42;;;;;;;;;;;;;;;;;;1039307;28;3426;-45
2022/06/30 00:29:12;;;;;;;;;;;;;;;;;;1038740;28;2815;-44
2022/06/30 00:29:43;;;;;;;;;;;;;;;;;;1040172;28;2252;-44
2022/06/30 00:30:13;;;;;;;;;;;;;;;;;;1038912;28;2614;-43
2022/06/30 00:30:44;;;;;;;;;;;;;;;;;;1039643;28;2705;-44
2022/06/30 00:31:15;;;;;;;;;;;;;;;;;;1039145;28;2764;-44
2022/06/30 00:31:52;;;;;;;;;;;;;;;;;;1040901;28;1653;-47
2022/06/30 00:32:22;;;;;;;;;;;;;;;;;;1039858;28;2171;-45
2022/06/30 00:32:53;;;;;;;;;;;;;;;;;;1039413;28;3941;-46
2022/06/30 00:33:24;;;;;;;;;;;;;;;;;;1039031;28;3050;-46
2022/06/30 00:33:55;;;;;;;;;;;;;;;;;;1040175;28;2783;-44
2022/06/30 00:34:25;;;;;;;;;;;;;;;;;;1039204;28;2914;-44
2022/06/30 00:34:56;;;;;;;;;;;;;;;;;;1038528;28;2848;-43
2022/06/30 00:35:26;;;;;;;;;;;;;;;;;;1039216;28;1896;-46
2022/06/30 00:35:56;;;;;;;;;;;;;;;;;;1038655;28;3837;-46
2022/06/30 00:36:26;;;;;;;;;;;;;;;;;;1039226;28;3862;-44
2022/06/30 00:36:57;;;;;;;;;;;;;;;;;;1040147;28;2068;-46
2022/06/30 00:37:27;;;;;;;;;;;;;;;;;;1039703;28;3812;-44
2022/06/30 00:37:57;;;;;;;;;;;;;;;;;;1038917;28;3712;-44
2022/06/30 00:38:28;;;;;;;;;;;;;;;;;;1039195;28;3672;-46
2022/06/30 00:38:58;;;;;;;;;;;;;;;;;;1039058;28;2108;-43
2022/06/30 00:39:29;;;;;;;;;;;;;;;;;;1039384;28;1972;-43
2022/06/30 00:39:59;;;;;;;;;;;;;;;;;;1038132;28;3560;-45
2022/06/30 00:40:33;;;;;;;;;;;;;;;;;;1039337;28;2395;-45
2022/06/30 00:41:04;;;;;;;;;;;;;;;;;;1039912;28;1534;-45
2022/06/30 00:41:38;;;;;;;;;;;;;;;;;;1039031;28;1901;-44
2022/06/30 00:42:09;;;;;;;;;;;;;;;;;;1040671;28;2003;-47
2022/06/30 00:42:39;;;;;;;;;;;;;;;;;;1038952;28;2903;-43
2022/06/30 00:43:10;;;;;;;;;;;;;;;;;;1039740;28;2473;-43
2022/06/30 00:43:41;;;;;;;;;;;;;;;;;;1043142;28;1826;-45
2022/06/30 00:44:12;;;;;;;;;;;;;;;;;;1043844;28;1902;-44
2022/06/30 00:44:43;;;;;;;;;;;;;;;;;;1042089;28;3286;-44
2022/06/30 00:45:13;;;;;;;;;;;;;;;;;;1042964;28;2624;-43
2022/06/30 00:45:45;;;;;;;;;;;;;;;;;;1039174;28;1656;-44
2022/06/30 00:46:15;;;;;;;;;;;;;;;;;;1039625;28;1758;-46
2022/06/30 00:46:45;;;;;;;;;;;;;;;;;;1036909;28;2834;-46
2022/06/30 00:47:16;;;;;;;;;;;;;;;;;;1037269;28;5229;-44
2022/06/30 00:47:46;;;;;;;;;;;;;;;;;;1043161;28;2796;-45
2022/06/30 00:48:24;;;;;;;;;;;;;;;;;;1043533;28;3357;-45
2022/06/30 00:48:54;;;;;;;;;;;;;;;;;;1043545;28;3413;-45
2022/06/30 00:49:24;;;;;;;;;;;;;;;;;;1041266;28;3736;-43
2022/06/30 00:49:55;;;;;;;;;;;;;;;;;;1040586;28;2717;-43
2022/06/30 00:50:32;;;;;;;;;;;;;;;;;;1040591;28;2670;-43
2022/06/30 00:51:05;;;;;;;;;;;;;;;;;;1039817;28;1528;-44
2022/06/30 00:51:35;;;;;;;;;;;;;;;;;;1047872;28;3065;-45
2022/06/30 00:52:08;;;;;;;;;;;;;;;;;;1048080;28;1648;-44
2022/06/30 00:52:39;;;;;;;;;;;;;;;;;;1045990;28;2712;-45
2022/06/30 00:53:10;;;;;;;;;;;;;;;;;;1047202;28;2144;-44
2022/06/30 00:53:41;;;;;;;;;;;;;;;;;;1039996;28;2570;-44
2022/06/30 00:54:12;;;;;;;;;;;;;;;;;;1039140;28;1883;-47
2022/06/30 00:54:43;;;;;;;;;;;;;;;;;;1038272;28;3360;-44
2022/06/30 00:55:14;;;;;;;;;;;;;;;;;;1039521;28;2597;-45
2022/06/30 00:55:46;;;;;;;;;;;;;;;;;;1039532;28;2460;-44
2022/06/30 00:56:17;;;;;;;;;;;;;;;;;;1039882;28;2390;-44
2022/06/30 00:56:48;;;;;;;;;;;;;;;;;;1037662;28;1802;-43
2022/06/30 00:57:20;;;;;;;;;;;;;;;;;;1038130;28;3893;-44
2022/06/30 00:57:52;;;;;;;;;;;;;;;;;;1039767;28;2124;-44
2022/06/30 00:58:23;;;;;;;;;;;;;;;;;;1039137;28;2734;-43
2022/06/30 00:58:55;;;;;;;;;;;;;;;;;;1047262;28;2569;-44
2022/06/30 00:59:26;;;;;;;;;;;;;;;;;;1046518;28;4488;-45
2022/06/30 00:59:57;;;;;;;;;;;;;;;;;;1047296;28;2308;-45
2022/06/30 01:00:29;;;;;;;;;;;;;;;;;;1046527;28;3971;-43
2022/06/30 01:00:59;;;;;;;;;;;;;;;;;;1040858;28;1922;-45
2022/06/30 01:01:30;;;;;;;;;;;;;;;;;;1039303;28;1776;-43
2022/06/30 01:02:01;;;;;;;;;;;;;;;;;;1040299;28;3022;-44
2022/06/30 01:02:32;;;;;;;;;;;;;;;;;;1038699;28;2594;-45
2022/06/30 01:03:03;;;;;;;;;;;;;;;;;;1038515;28;2178;-46
2022/06/30 01:03:34;;;;;;;;;;;;;;;;;;1038433;28;3654;-45
2022/06/30 01:04:06;;;;;;;;;;;;;;;;;;1039582;28;3873;-43
2022/06/30 01:04:37;;;;;;;;;;;;;;;;;;1039466;28;2292;-44
2022/06/30 01:05:07;;;;;;;;;;;;;;;;;;1037702;28;3222;-45
2022/06/30 01:05:37;;;;;;;;;;;;;;;;;;1040613;28;2630;-44
2022/06/30 01:06:08;;;;;;;;;;;;;;;;;;1040092;28;1862;-48
2022/06/30 01:06:38;;;;;;;;;;;;;;;;;;1038530;28;2964;-43
2022/06/30 01:07:09;;;;;;;;;;;;;;;;;;1039236;28;2723;-45
2022/06/30 01:07:39;;;;;;;;;;;;;;;;;;1038852;28;3657;-45
2022/06/30 01:08:10;;;;;;;;;;;;;;;;;;1038970;28;3613;-45
2022/06/30 01:08:40;;;;;;;;;;;;;;;;;;1038607;28;3855;-43
2022/06/30 01:09:10;;;;;;;;;;;;;;;;;;1039828;28;1992;-44
2022/06/30 01:13:09;;;;;;;;;;;;;;;;;;1047811;28;3974;-44
2022/06/30 01:13:39;;;;;;;;;;;;;;;;;;1045785;28;3857;-44
2022/06/30 01:14:09;;;;;;;;;;;;;;;;;;1046866;28;3302;-45
2022/06/30 01:14:39;;;;;;;;;;;;;;;;;;1047432;28;3107;-45
2022/06/30 01:15:11;;;;;;;;;;;;;;;;;;1040047;28;1786;-44
2022/06/30 01:15:41;;;;;;;;;;;;;;;;;;1038759;28;3055;-44
2022/06/30 01:16:11;;;;;;;;;;;;;;;;;;1040569;28;1766;-46
2022/06/30 01:16:42;;;;;;;;;;;;;;;;;;1041279;28;3581;-43
2022/06/30 01:17:12;;;;;;;;;;;;;;;;;;1040681;28;1697;-44
2022/06/30 01:17:44;;;;;;;;;;;;;;;;;;1039953;28;2992;-43
2022/06/30 01:18:14;;;;;;;;;;;;;;;;;;1044224;28;2094;-43
2022/06/30 01:18:44;;;;;;;;;;;;;;;;;;1043180;28;1824;-43
2022/06/30 01:19:15;;;;;;;;;;;;;;;;;;1044055;28;3160;-43
2022/06/30 01:20:05;;;;;;;;;;;;;;;;;;1043757;28;2237;-44
2022/06/30 01:20:53;;;;;;;;;;;;;;;;;;1038931;28;2332;-43
2022/06/30 01:21:57;;;;;;;;;;;;;;;;;;1040011;28;1606;-42
2022/06/30 01:23:08;;;;;;;;;;;;;;;;;;1039531;28;3487;-45
2022/06/30 01:23:38;;;;;;;;;;;;;;;;;;1040877;28;1633;-43
2022/06/30 01:24:08;;;;;;;;;;;;;;;;;;1038050;28;3662;-45
2022/06/30 01:24:39;;;;;;;;;;;;;;;;;;1038781;28;2612;-43
2022/06/30 01:25:09;;;;;;;;;;;;;;;;;;1043373;28;2876;-45
2022/06/30 01:25:40;;;;;;;;;;;;;;;;;;1041599;28;3044;-43
2022/06/30 01:26:10;;;;;;;;;;;;;;;;;;1042493;28;3221;-44
2022/06/30 01:26:41;;;;;;;;;;;;;;;;;;1039483;28;3581;-43
2022/06/30 01:27:11;;;;;;;;;;;;;;;;;;1039542;28;2001;-43
2022/06/30 01:27:41;;;;;;;;;;;;;;;;;;1039532;28;1778;-45
2022/06/30 01:28:12;;;;;;;;;;;;;;;;;;1042853;28;2420;-45
2022/06/30 01:28:42;;;;;;;;;;;;;;;;;;1046482;28;2489;-44
2022/06/30 01:29:12;;;;;;;;;;;;;;;;;;1046486;28;2969;-44
2022/06/30 01:29:43;;;;;;;;;;;;;;;;;;1046199;28;4484;-45
2022/06/30 01:30:13;;;;;;;;;;;;;;;;;;1037986;28;3841;-45
2022/06/30 01:30:43;;;;;;;;;;;;;;;;;;1038402;28;2585;-43
2022/06/30 01:31:13;;;;;;;;;;;;;;;;;;1046187;28;2776;-45
2022/06/30 01:31:44;;;;;;;;;;;;;;;;;;1047132;28;2788;-43
2022/06/30 01:32:20;;;;;;;;;;;;;;;;;;1047614;28;3261;-43
2022/06/30 01:32:50;;;;;;;;;;;;;;;;;;1044599;28;2682;-45
2022/06/30 01:33:21;;;;;;;;;;;;;;;;;;1039525;28;2693;-44
2022/06/30 01:33:51;;;;;;;;;;;;;;;;;;1039560;28;1811;-42
2022/06/30 01:34:22;;;;;;;;;;;;;;;;;;1039544;28;3736;-44
2022/06/30 01:34:52;;;;;;;;;;;;;;;;;;1040326;28;2909;-43
2022/06/30 01:35:22;;;;;;;;;;;;;;;;;;1041064;28;3784;-44
2022/06/30 01:35:56;;;;;;;;;;;;;;;;;;1047829;28;1695;-44
2022/06/30 01:36:26;;;;;;;;;;;;;;;;;;1047327;28;3177;-44
2022/06/30 01:36:56;;;;;;;;;;;;;;;;;;1046909;28;3694;-43
2022/06/30 01:37:26;;;;;;;;;;;;;;;;;;1047727;28;1577;-43
2022/06/30 01:37:58;;;;;;;;;;;;;;;;;;1039772;28;2247;-46
2022/06/30 01:38:28;;;;;;;;;;;;;;;;;;1040242;28;3366;-45
2022/06/30 01:38:59;;;;;;;;;;;;;;;;;;1038182;28;3051;-45
2022/06/30 01:39:29;;;;;;;;;;;;;;;;;;1038108;28;3647;-43
2022/06/30 01:39:59;;;;;;;;;;;;;;;;;;1039431;28;2149;-44
2022/06/30 01:40:31;;;;;;;;;;;;;;;;;;1039678;28;2225;-44
2022/06/30 01:41:01;;;;;;;;;;;;;;;;;;1037489;28;2581;-45
2022/06/30 01:41:31;;;;;;;;;;;;;;;;;;1040308;28;2633;-44
2022/06/30 01:42:02;;;;;;;;;;;;;;;;;;1039785;28;1801;-45
2022/06/30 01:42:32;;;;;;;;;;;;;;;;;;1041414;28;2609;-44
2022/06/30 01:43:05;;;;;;;;;;;;;;;;;;1039094;28;3857;-45
2022/06/30 01:43:35;;;;;;;;;;;;;;;;;;1041882;28;2211;-45
2022/06/30 01:44:05;;;;;;;;;;;;;;;;;;1037026;28;3890;-44
2022/06/30 01:44:36;;;;;;;;;;;;;;;;;;1040342;28;2429;-46
2022/06/30 01:45:06;;;;;;;;;;;;;;;;;;1038233;28;2886;-45
2022/06/30 01:45:37;;;;;;;;;;;;;;;;;;1040457;28;1901;-43
2022/06/30 01:46:08;;;;;;;;;;;;;;;;;;1040015;28;1903;-43
2022/06/30 01:46:45;;;;;;;;;;;;;;;;;;1039879;28;3404;-46
2022/06/30 01:47:15;;;;;;;;;;;;;;;;;;1039245;28;3355;-45
2022/06/30 01:47:45;;;;;;;;;;;;;;;;;;1040769;28;3773;-44
2022/06/30 01:48:15;;;;;;;;;;;;;;;;;;1039532;28;2531;-45
2022/06/30 01:48:46;;;;;;;;;;;;;;;;;;1047930;28;3712;-45
2022/06/30 01:49:16;;;;;;;;;;;;;;;;;;1046189;28;3980;-46
2022/06/30 01:49:46;;;;;;;;;;;;;;;;;;1047519;28;3859;-45
2022/06/30 01:50:19;;;;;;;;;;;;;;;;;;1047685;28;2958;-44
2022/06/30 01:50:49;;;;;;;;;;;;;;;;;;1040418;28;2794;-44
2022/06/30 01:51:19;;;;;;;;;;;;;;;;;;1040188;28;2298;-43
2022/06/30 01:51:49;;;;;;;;;;;;;;;;;;1041290;28;2458;-44
2022/06/30 01:52:20;;;;;;;;;;;;;;;;;;1040042;28;3097;-46
2022/06/30 01:52:50;;;;;;;;;;;;;;;;;;1041973;28;1691;-44
2022/06/30 01:53:20;;;;;;;;;;;;;;;;;;1040798;28;2116;-44
2022/06/30 01:53:51;;;;;;;;;;;;;;;;;;1040716;28;1725;-46
2022/06/30 01:54:22;;;;;;;;;;;;;;;;;;1040101;28;2343;-44
2022/06/30 01:54:52;;;;;;;;;;;;;;;;;;1040115;28;2132;-44
2022/06/30 01:55:23;;;;;;;;;;;;;;;;;;1039885;28;3849;-45
2022/06/30 01:55:53;;;;;;;;;;;;;;;;;;1040139;28;2962;-44
2022/06/30 01:56:23;;;;;;;;;;;;;;;;;;1038790;28;3775;-46
2022/06/30 01:56:53;;;;;;;;;;;;;;;;;;1040763;28;1715;-45
2022/06/30 01:57:24;;;;;;;;;;;;;;;;;;1039411;28;2476;-43
2022/06/30 01:57:54;;;;;;;;;;;;;;;;;;1040195;28;2306;-46
2022/06/30 01:58:24;;;;;;;;;;;;;;;;;;1040914;28;3140;-45
2022/06/30 01:58:55;;;;;;;;;;;;;;;;;;1046388;28;2829;-44
2022/06/30 01:59:25;;;;;;;;;;;;;;;;;;1047594;28;2628;-44
2022/06/30 01:59:55;;;;;;;;;;;;;;;;;;1048478;28;2306;-47
2022/06/30 02:00:27;;;;;;;;;;;;;;;;;;1046468;28;2919;-44
2022/06/30 02:00:57;;;;;;;;;;;;;;;;;;1039342;28;4120;-43
2022/06/30 02:01:27;;;;;;;;;;;;;;;;;;1040183;28;3144;-44
2022/06/30 02:01:58;;;;;;;;;;;;;;;;;;1040340;28;3104;-45
2022/06/30 02:02:28;;;;;;;;;;;;;;;;;;1038382;28;2647;-44
2022/06/30 02:02:58;;;;;;;;;;;;;;;;;;1040191;28;3880;-44
2022/06/30 02:03:29;;;;;;;;;;;;;;;;;;1039042;28;3334;-46
2022/06/30 02:04:50;;;;;;;;;;;;;;;;;;1040731;28;3798;-46
2022/06/30 02:05:21;;;;;;;;;;;;;;;;;;1041084;28;2737;-47
2022/06/30 02:05:51;;;;;;;;;;;;;;;;;;1040908;28;2275;-44
2022/06/30 02:06:21;;;;;;;;;;;;;;;;;;1041545;28;3782;-44
2022/06/30 02:06:52;;;;;;;;;;;;;;;;;;1047731;28;3269;-47
2022/06/30 02:07:23;;;;;;;;;;;;;;;;;;1045846;28;2854;-43
2022/06/30 02:07:53;;;;;;;;;;;;;;;;;;1045901;28;1680;-46
2022/06/30 02:08:24;;;;;;;;;;;;;;;;;;1045486;28;2386;-43
2022/06/30 02:08:54;;;;;;;;;;;;;;;;;;1040610;28;2490;-45
2022/06/30 02:09:24;;;;;;;;;;;;;;;;;;1040216;28;2016;-42
2022/06/30 02:09:55;;;;;;;;;;;;;;;;;;1038910;28;2174;-43
2022/06/30 02:10:25;;;;;;;;;;;;;;;;;;1040330;28;2792;-43
2022/06/30 02:10:55;;;;;;;;;;;;;;;;;;1041645;28;1586;-43
2022/06/30 02:11:25;;;;;;;;;;;;;;;;;;1039532;28;2772;-43
2022/06/30 02:12:45;;;;;;;;;;;;;;;;;;1039414;28;2654;-45
2022/06/30 02:13:16;;;;;;;;;;;;;;;;;;1039904;28;2505;-44
2022/06/30 02:13:46;;;;;;;;;;;;;;;;;;1041029;28;2121;-43
2022/06/30 02:14:18;;;;;;;;;;;;;;;;;;1038674;28;2736;-48
2022/06/30 02:14:48;;;;;;;;;;;;;;;;;;1041351;28;2828;-43
2022/06/30 02:15:21;;;;;;;;;;;;;;;;;;1039251;28;5151;-43
2022/06/30 02:15:51;;;;;;;;;;;;;;;;;;1038505;28;3381;-45
2022/06/30 02:16:22;;;;;;;;;;;;;;;;;;1040027;28;3258;-44
2022/06/30 02:16:52;;;;;;;;;;;;;;;;;;1046428;28;3843;-47
2022/06/30 02:17:22;;;;;;;;;;;;;;;;;;1047553;28;3039;-46
2022/06/30 02:17:53;;;;;;;;;;;;;;;;;;1048124;28;3265;-43
2022/06/30 02:18:24;;;;;;;;;;;;;;;;;;1046220;28;2671;-43
2022/06/30 02:18:54;;;;;;;;;;;;;;;;;;1038759;28;2827;-46
2022/06/30 02:19:24;;;;;;;;;;;;;;;;;;1038366;28;3692;-48
2022/06/30 02:19:55;;;;;;;;;;;;;;;;;;1039709;28;3917;-45
2022/06/30 02:20:25;;;;;;;;;;;;;;;;;;1038754;28;2821;-43
2022/06/30 02:20:57;;;;;;;;;;;;;;;;;;1040318;28;2856;-45
2022/06/30 02:21:28;;;;;;;;;;;;;;;;;;1040800;28;1679;-44
2022/06/30 02:22:11;;;;;;;;;;;;;;;;;;1041336;28;1605;-44
2022/06/30 02:22:49;;;;;;;;;;;;;;;;;;1041266;28;1713;-44
2022/06/30 02:23:20;;;;;;;;;;;;;;;;;;1041598;28;1585;-45
2022/06/30 02:23:53;;;;;;;;;;;;;;;;;;1039997;28;1728;-44
2022/06/30 02:24:23;;;;;;;;;;;;;;;;;;1040594;28;2489;-43
2022/06/30 02:24:53;;;;;;;;;;;;;;;;;;1040454;28;3011;-45
2022/06/30 02:25:24;;;;;;;;;;;;;;;;;;1041447;28;3906;-44
2022/06/30 02:25:55;;;;;;;;;;;;;;;;;;1041846;28;1566;-43
2022/06/30 02:26:25;;;;;;;;;;;;;;;;;;1039624;28;3812;-43
2022/06/30 02:26:55;;;;;;;;;;;;;;;;;;1040351;28;3023;-43
2022/06/30 02:27:32;;;;;;;;;;;;;;;;;;1040076;28;3200;-42
2022/06/30 02:28:05;;;;;;;;;;;;;;;;;;1041728;28;3127;-44
2022/06/30 02:28:35;;;;;;;;;;;;;;;;;;1036880;28;2914;-43
2022/06/30 02:29:06;;;;;;;;;;;;;;;;;;1036073;28;3206;-43
2022/06/30 02:29:36;;;;;;;;;;;;;;;;;;1036543;28;4273;-45
2022/06/30 02:30:07;;;;;;;;;;;;;;;;;;1038176;28;3095;-44
2022/06/30 02:30:37;;;;;;;;;;;;;;;;;;1040067;28;4669;-44
2022/06/30 02:31:07;;;;;;;;;;;;;;;;;;1039202;28;2476;-44
2022/06/30 02:31:38;;;;;;;;;;;;;;;;;;1039430;28;2940;-45
2022/06/30 02:32:08;;;;;;;;;;;;;;;;;;1039488;28;3225;-44
2022/06/30 02:32:39;;;;;;;;;;;;;;;;;;1040766;28;2504;-43
2022/06/30 02:33:09;;;;;;;;;;;;;;;;;;1039153;28;3370;-45
2022/06/30 02:33:40;;;;;;;;;;;;;;;;;;1041447;28;2690;-43
2022/06/30 02:34:10;;;;;;;;;;;;;;;;;;1039284;28;3896;-43
2022/06/30 02:34:40;;;;;;;;;;;;;;;;;;1039781;28;3891;-46
2022/06/30 02:35:11;;;;;;;;;;;;;;;;;;1040397;28;3033;-45
2022/06/30 02:35:41;;;;;;;;;;;;;;;;;;1041674;28;1794;-43
2022/06/30 02:36:11;;;;;;;;;;;;;;;;;;1040311;28;1713;-44
2022/06/30 02:36:41;;;;;;;;;;;;;;;;;;1040726;28;1635;-44
2022/06/30 02:37:12;;;;;;;;;;;;;;;;;;1047149;28;2173;-43
2022/06/30 02:37:43;;;;;;;;;;;;;;;;;;1049077;28;3335;-44
2022/06/30 02:38:13;;;;;;;;;;;;;;;;;;1048141;28;1909;-45
2022/06/30 02:38:43;;;;;;;;;;;;;;;;;;1046911;28;3318;-43
2022/06/30 02:39:13;;;;;;;;;;;;;;;;;;1039205;28;3655;-43
2022/06/30 02:39:44;;;;;;;;;;;;;;;;;;1040537;28;3691;-44
2022/06/30 02:40:14;;;;;;;;;;;;;;;;;;1038183;28;2734;-46
2022/06/30 02:40:45;;;;;;;;;;;;;;;;;;1036761;28;2889;-45
2022/06/30 02:41:15;;;;;;;;;;;;;;;;;;1037554;28;2377;-45
2022/06/30 02:41:45;;;;;;;;;;;;;;;;;;1035951;28;3196;-45
2022/06/30 02:42:16;;;;;;;;;;;;;;;;;;1042202;28;2877;-46
2022/06/30 02:42:46;;;;;;;;;;;;;;;;;;1039159;28;3745;-44
2022/06/30 02:43:16;;;;;;;;;;;;;;;;;;1039187;28;3855;-44
2022/06/30 02:43:48;;;;;;;;;;;;;;;;;;1039024;28;3711;-43
2022/06/30 02:44:19;;;;;;;;;;;;;;;;;;1040246;28;2717;-45
2022/06/30 02:44:52;;;;;;;;;;;;;;;;;;1038378;28;3658;-46
2022/06/30 02:45:22;;;;;;;;;;;;;;;;;;1038666;28;5613;-45
2022/06/30 02:45:53;;;;;;;;;;;;;;;;;;1041986;28;2977;-45
2022/06/30 02:46:23;;;;;;;;;;;;;;;;;;1041251;28;2340;-46
2022/06/30 02:46:54;;;;;;;;;;;;;;;;;;1040927;28;2812;-45
2022/06/30 02:47:29;;;;;;;;;;;;;;;;;;1041231;28;3499;-45
2022/06/30 02:47:59;;;;;;;;;;;;;;;;;;1040524;28;4304;-45
2022/06/30 02:48:29;;;;;;;;;;;;;;;;;;1039003;28;3077;-46
2022/06/30 02:48:59;;;;;;;;;;;;;;;;;;1039745;28;3778;-45
2022/06/30 02:49:30;;;;;;;;;;;;;;;;;;1039429;28;3718;-45
2022/06/30 02:50:03;;;;;;;;;;;;;;;;;;1040337;28;2165;-44
2022/06/30 02:50:33;;;;;;;;;;;;;;;;;;1038503;28;2881;-45
2022/06/30 02:51:03;;;;;;;;;;;;;;;;;;1040432;28;2191;-48
2022/06/30 02:51:34;;;;;;;;;;;;;;;;;;1040367;28;1991;-47
2022/06/30 02:52:04;;;;;;;;;;;;;;;;;;1041360;28;2136;-44
2022/06/30 02:52:35;;;;;;;;;;;;;;;;;;1039932;28;2519;-45
2022/06/30 02:53:06;;;;;;;;;;;;;;;;;;1040336;28;2822;-46
2022/06/30 02:53:36;;;;;;;;;;;;;;;;;;1040963;28;1690;-44
2022/06/30 02:54:06;;;;;;;;;;;;;;;;;;1040301;28;2038;-44
2022/06/30 02:54:37;;;;;;;;;;;;;;;;;;1039297;28;3120;-44
2022/06/30 02:55:07;;;;;;;;;;;;;;;;;;1039142;28;2868;-46
2022/06/30 02:55:38;;;;;;;;;;;;;;;;;;1040834;28;4025;-47
2022/06/30 02:56:08;;;;;;;;;;;;;;;;;;1039692;28;3506;-44
2022/06/30 02:56:39;;;;;;;;;;;;;;;;;;1040746;28;2384;-44
2022/06/30 02:57:09;;;;;;;;;;;;;;;;;;1039570;28;3199;-43
2022/06/30 02:57:39;;;;;;;;;;;;;;;;;;1039729;28;3322;-44
2022/06/30 02:58:09;;;;;;;;;;;;;;;;;;1039518;28;2569;-43
2022/06/30 02:58:41;;;;;;;;;;;;;;;;;;1048127;28;3719;-50
2022/06/30 02:59:11;;;;;;;;;;;;;;;;;;1047899;28;2998;-43
2022/06/30 02:59:41;;;;;;;;;;;;;;;;;;1043115;28;2971;-43
2022/06/30 03:00:12;;;;;;;;;;;;;;;;;;1039626;28;2264;-45
2022/06/30 03:00:42;;;;;;;;;;;;;;;;;;1034931;28;3088;-43
2022/06/30 03:01:12;;;;;;;;;;;;;;;;;;1035661;28;2817;-44
2022/06/30 03:01:43;;;;;;;;;;;;;;;;;;1036077;28;2147;-44
2022/06/30 03:02:13;;;;;;;;;;;;;;;;;;1040271;28;2723;-43
2022/06/30 03:02:43;;;;;;;;;;;;;;;;;;1034681;28;3711;-44
2022/06/30 03:03:14;;;;;;;;;;;;;;;;;;1035551;28;3813;-44
2022/06/30 03:03:44;;;;;;;;;;;;;;;;;;1038259;28;3676;-44
2022/06/30 03:04:14;;;;;;;;;;;;;;;;;;1041212;28;2822;-45
2022/06/30 03:04:44;;;;;;;;;;;;;;;;;;1040049;28;1856;-43
2022/06/30 03:05:15;;;;;;;;;;;;;;;;;;1038796;28;3895;-43
2022/06/30 03:05:45;;;;;;;;;;;;;;;;;;1041140;28;1619;-43
2022/06/30 03:06:15;;;;;;;;;;;;;;;;;;1040044;28;2772;-42
2022/06/30 03:06:45;;;;;;;;;;;;;;;;;;1040592;28;1752;-44
2022/06/30 03:07:16;;;;;;;;;;;;;;;;;;1040574;28;3097;-44
2022/06/30 03:07:46;;;;;;;;;;;;;;;;;;1040591;28;3496;-44
2022/06/30 03:08:16;;;;;;;;;;;;;;;;;;1041248;28;3682;-43
2022/06/30 03:08:47;;;;;;;;;;;;;;;;;;1040941;28;2349;-44
2022/06/30 03:09:17;;;;;;;;;;;;;;;;;;1042147;28;3248;-45
2022/06/30 03:09:47;;;;;;;;;;;;;;;;;;1039659;28;2229;-46
2022/06/30 03:10:17;;;;;;;;;;;;;;;;;;1046565;28;3061;-44
2022/06/30 03:10:48;;;;;;;;;;;;;;;;;;1048573;28;3131;-45
2022/06/30 03:11:25;;;;;;;;;;;;;;;;;;1045082;28;1930;-45
2022/06/30 03:11:56;;;;;;;;;;;;;;;;;;1042855;28;1702;-45
2022/06/30 03:12:28;;;;;;;;;;;;;;;;;;1035203;28;3539;-45
2022/06/30 03:12:58;;;;;;;;;;;;;;;;;;1038022;28;2032;-44
2022/06/30 03:13:29;;;;;;;;;;;;;;;;;;1039488;28;3158;-44
2022/06/30 03:13:59;;;;;;;;;;;;;;;;;;1040592;28;3770;-46
2022/06/30 03:14:29;;;;;;;;;;;;;;;;;;1039063;28;4617;-45
2022/06/30 03:15:00;;;;;;;;;;;;;;;;;;1039378;28;3292;-45
2022/06/30 03:15:30;;;;;;;;;;;;;;;;;;1040085;28;3602;-45
2022/06/30 03:16:01;;;;;;;;;;;;;;;;;;1040518;28;2297;-44
2022/06/30 03:16:32;;;;;;;;;;;;;;;;;;1040798;28;3750;-45
2022/06/30 03:17:02;;;;;;;;;;;;;;;;;;1040702;28;3162;-45
2022/06/30 03:17:33;;;;;;;;;;;;;;;;;;1041248;28;2458;-46
2022/06/30 03:18:03;;;;;;;;;;;;;;;;;;1040737;28;3115;-46
2022/06/30 03:18:33;;;;;;;;;;;;;;;;;;1039345;28;3046;-44
2022/06/30 03:19:03;;;;;;;;;;;;;;;;;;1041150;28;3596;-46
2022/06/30 03:19:34;;;;;;;;;;;;;;;;;;1037721;28;2528;-44
2022/06/30 03:20:04;;;;;;;;;;;;;;;;;;1036965;28;3335;-43
2022/06/30 03:20:35;;;;;;;;;;;;;;;;;;1032216;28;3737;-44
2022/06/30 03:21:05;;;;;;;;;;;;;;;;;;1037018;28;3592;-44
2022/06/30 03:21:35;;;;;;;;;;;;;;;;;;1040842;28;4388;-45
2022/06/30 03:22:19;;;;;;;;;;;;;;;;;;1041449;28;3576;-45
2022/06/30 03:22:56;;;;;;;;;;;;;;;;;;1041583;28;2172;-44
2022/06/30 03:23:26;;;;;;;;;;;;;;;;;;1041384;28;2013;-46
2022/06/30 03:23:57;;;;;;;;;;;;;;;;;;1041894;28;1326;-44
2022/06/30 03:24:27;;;;;;;;;;;;;;;;;;1041716;28;3809;-44
2022/06/30 03:24:57;;;;;;;;;;;;;;;;;;1043206;28;3778;-45
2022/06/30 03:25:27;;;;;;;;;;;;;;;;;;1048108;28;3658;-45
2022/06/30 03:25:58;;;;;;;;;;;;;;;;;;1048172;28;2030;-44
2022/06/30 03:26:28;;;;;;;;;;;;;;;;;;1047704;28;2678;-45
2022/06/30 03:26:58;;;;;;;;;;;;;;;;;;1044556;28;2899;-44
2022/06/30 03:27:29;;;;;;;;;;;;;;;;;;1039297;28;3769;-44
2022/06/30 03:27:59;;;;;;;;;;;;;;;;;;1043946;28;1891;-45
2022/06/30 03:28:30;;;;;;;;;;;;;;;;;;1045041;28;2221;-44
2022/06/30 03:29:00;;;;;;;;;;;;;;;;;;1048588;28;2596;-45
2022/06/30 03:29:30;;;;;;;;;;;;;;;;;;1047972;28;1587;-46
2022/06/30 03:30:00;;;;;;;;;;;;;;;;;;1047575;28;2452;-45
2022/06/30 03:30:31;;;;;;;;;;;;;;;;;;1043106;28;2463;-45
2022/06/30 03:31:01;;;;;;;;;;;;;;;;;;1042941;28;2302;-44
2022/06/30 03:31:31;;;;;;;;;;;;;;;;;;1044170;28;1917;-44
2022/06/30 03:32:02;;;;;;;;;;;;;;;;;;1040169;28;1710;-48
2022/06/30 03:32:32;;;;;;;;;;;;;;;;;;1045090;28;2558;-45
2022/06/30 03:33:02;;;;;;;;;;;;;;;;;;1043974;28;1962;-46
2022/06/30 03:33:33;;;;;;;;;;;;;;;;;;1044712;28;2154;-44
2022/06/30 03:34:03;;;;;;;;;;;;;;;;;;1043445;28;3940;-45
2022/06/30 03:34:34;;;;;;;;;;;;;;;;;;1044458;28;3684;-46
2022/06/30 03:35:04;;;;;;;;;;;;;;;;;;1043236;28;3750;-44
2022/06/30 03:35:35;;;;;;;;;;;;;;;;;;1044829;28;1793;-43
2022/06/30 03:36:05;;;;;;;;;;;;;;;;;;1044413;28;3693;-45
2022/06/30 03:36:35;;;;;;;;;;;;;;;;;;1041129;28;3914;-45
2022/06/30 03:37:06;;;;;;;;;;;;;;;;;;1041554;28;1427;-46
2022/06/30 03:37:36;;;;;;;;;;;;;;;;;;1041344;28;2950;-46
2022/06/30 03:38:06;;;;;;;;;;;;;;;;;;1045648;28;2183;-46
2022/06/30 03:38:37;;;;;;;;;;;;;;;;;;1047402;28;3295;-46
2022/06/30 03:39:07;;;;;;;;;;;;;;;;;;1043367;28;3554;-48
2022/06/30 03:39:37;;;;;;;;;;;;;;;;;;1041629;28;1940;-47
2022/06/30 03:40:08;;;;;;;;;;;;;;;;;;1039117;28;2272;-44
2022/06/30 03:40:38;;;;;;;;;;;;;;;;;;1033556;28;2611;-45
2022/06/30 03:41:08;;;;;;;;;;;;;;;;;;1036208;28;3221;-45